createdAt,value
2022-10-20T00:01:12.192Z,8.00
2022-10-20T00:03:39.892Z,7.45
2022-10-20T00:06:13.300Z,7.32
2022-10-20T00:08:41.786Z,6.43
2022-10-20T00:11:11.181Z,7.07
2022-10-20T00:13:40.171Z,7.85
2022-10-20T00:16:08.132Z,6.40
2022-10-20T00:18:36.517Z,7.60
2022-10-20T00:21:08.957Z,7.63
2022-10-20T00:23:36.840Z,7.70
2022-10-20T00:26:11.258Z,7.28
2022-10-20T00:28:38.823Z,7.47
2022-10-20T00:31:07.092Z,7.22
2022-10-20T00:33:35.598Z,7.53
2022-10-20T00:36:06.303Z,8.07
2022-10-20T00:38:34.767Z,8.02
2022-10-20T00:41:06.188Z,7.70
2022-10-20T00:43:45.665Z,7.90
2022-10-20T00:46:17.638Z,8.25
2022-10-20T00:48:48.940Z,7.63
2022-10-20T00:51:20.387Z,8.20
2022-10-20T00:53:50.859Z,8.18
2022-10-20T00:56:18.349Z,8.20
2022-10-20T00:58:46.206Z,7.47
2022-10-20T01:01:14.684Z,7.63
2022-10-20T01:03:48.682Z,8.65
2022-10-20T01:06:18.333Z,6.72
2022-10-20T01:08:46.072Z,7.22
2022-10-20T01:11:21.695Z,6.65
2022-10-20T01:14:10.724Z,6.82
2022-10-20T01:17:03.016Z,7.10
2022-10-20T01:19:54.514Z,7.15
2022-10-20T01:22:37.810Z,6.40
2022-10-20T01:26:01.062Z,7.10
2022-10-20T01:28:50.814Z,6.50
2022-10-20T01:31:42.748Z,7.38
2022-10-20T01:34:31.322Z,7.05
2022-10-20T01:37:34.370Z,6.72
2022-10-20T01:40:22.645Z,6.20
2022-10-20T01:42:54.188Z,6.28
2022-10-20T01:45:25.352Z,6.28
2022-10-20T01:47:54.768Z,6.75
2022-10-20T01:50:25.022Z,6.28
2022-10-20T01:52:57.888Z,6.65
2022-10-20T01:55:25.926Z,6.80
2022-10-20T01:58:08.458Z,6.53
2022-10-20T02:00:39.354Z,6.78
2022-10-20T02:03:32.877Z,6.38
2022-10-20T02:06:15.356Z,6.00
2022-10-20T02:08:47.419Z,6.80
2022-10-20T02:11:24.827Z,6.15
2022-10-20T02:13:55.919Z,7.07
2022-10-20T02:16:29.906Z,7.22
2022-10-20T02:21:32.112Z,6.57
2022-10-20T02:24:04.455Z,6.90
2022-10-20T02:26:34.075Z,7.32
2022-10-20T02:29:24.845Z,6.28
2022-10-20T02:31:52.371Z,6.50
2022-10-20T02:34:19.852Z,7.35
2022-10-20T02:36:47.551Z,6.28
2022-10-20T02:39:15.051Z,6.90
2022-10-20T02:41:42.568Z,6.32
2022-10-20T02:44:10.169Z,6.53
2022-10-20T02:46:37.686Z,5.97
2022-10-20T02:49:05.759Z,6.30
2022-10-20T02:51:33.325Z,6.30
2022-10-20T02:54:01.044Z,6.13
2022-10-20T02:56:30.948Z,6.75
2022-10-20T02:58:58.868Z,6.22
2022-10-20T03:01:26.478Z,7.40
2022-10-20T03:03:58.716Z,6.15
2022-10-20T03:06:26.765Z,6.90
2022-10-20T03:08:54.450Z,6.43
2022-10-20T03:11:22.127Z,5.82
2022-10-20T03:13:49.596Z,5.93
2022-10-20T03:16:17.115Z,5.97
2022-10-20T03:18:44.631Z,6.75
2022-10-20T03:21:12.163Z,5.70
2022-10-20T03:23:39.620Z,5.72
2022-10-20T03:26:10.063Z,6.65
2022-10-20T03:28:38.468Z,6.60
2022-10-20T03:31:06.944Z,6.88
2022-10-20T03:33:34.750Z,6.35
2022-10-20T03:36:02.572Z,6.03
2022-10-20T03:38:30.068Z,6.90
2022-10-20T03:40:59.552Z,6.13
2022-10-20T03:43:27.510Z,6.30
2022-10-20T03:46:06.279Z,6.82
2022-10-20T03:48:34.057Z,6.85
2022-10-20T03:51:02.250Z,7.15
2022-10-20T03:53:30.121Z,6.10
2022-10-20T03:55:57.660Z,6.35
2022-10-20T03:58:25.321Z,6.35
2022-10-20T04:00:55.191Z,6.57
2022-10-20T04:03:23.014Z,7.10
2022-10-20T04:05:50.520Z,6.90
2022-10-20T04:08:18.131Z,6.80
2022-10-20T04:10:46.136Z,7.15
2022-10-20T04:13:13.695Z,6.63
2022-10-20T04:15:41.172Z,6.88
2022-10-20T04:18:08.782Z,7.35
2022-10-20T04:20:38.268Z,6.90
2022-10-20T04:23:08.095Z,7.07
2022-10-20T04:25:35.715Z,7.38
2022-10-20T04:28:03.332Z,7.43
2022-10-20T04:30:31.387Z,6.80
2022-10-20T04:32:59.021Z,8.02
2022-10-20T04:35:26.533Z,7.25
2022-10-20T04:37:54.520Z,7.05
2022-10-20T04:40:22.640Z,6.95
2022-10-20T04:42:50.363Z,7.75
2022-10-20T04:45:18.045Z,7.35
2022-10-20T04:47:45.565Z,8.05
2022-10-20T04:50:14.547Z,7.68
2022-10-20T04:52:42.053Z,7.25
2022-10-20T04:55:09.795Z,7.00
2022-10-20T04:57:37.530Z,6.68
2022-10-20T05:00:08.208Z,7.93
2022-10-20T05:02:36.077Z,7.15
2022-10-20T05:05:04.987Z,7.93
2022-10-20T05:07:32.680Z,7.72
2022-10-20T05:10:00.713Z,8.98
2022-10-20T05:12:28.449Z,8.43
2022-10-20T05:14:56.075Z,8.75
2022-10-20T05:17:23.512Z,8.57
2022-10-20T05:19:51.170Z,9.25
2022-10-20T05:22:19.031Z,8.25
2022-10-20T05:24:46.575Z,8.63
2022-10-20T05:27:14.045Z,8.77
2022-10-20T05:29:43.525Z,8.00
2022-10-20T05:32:11.409Z,8.80
2022-10-20T05:34:45.952Z,9.35
2022-10-20T05:37:13.538Z,8.30
2022-10-20T05:39:43.506Z,8.35
2022-10-20T05:42:11.067Z,8.75
2022-10-20T05:44:38.494Z,8.73
2022-10-20T05:47:05.996Z,9.10
2022-10-20T05:49:34.421Z,8.65
2022-10-20T05:52:01.939Z,9.20
2022-10-20T05:54:29.353Z,9.90
2022-10-20T05:56:56.807Z,11.02
2022-10-20T05:59:26.975Z,10.52
2022-10-20T06:01:54.563Z,10.45
2022-10-20T06:04:23.829Z,10.57
2022-10-20T06:06:52.782Z,9.35
2022-10-20T06:09:22.064Z,9.18
2022-10-20T06:11:49.894Z,9.35
2022-10-20T06:14:18.065Z,9.32
2022-10-20T06:16:46.097Z,9.27
2022-10-20T06:19:13.665Z,8.85
2022-10-20T06:24:13.879Z,8.68
2022-10-20T06:26:43.129Z,9.10
2022-10-20T06:29:19.973Z,8.50
2022-10-20T06:31:50.223Z,7.57
2022-10-20T06:34:23.365Z,8.15
2022-10-20T06:36:51.143Z,8.18
2022-10-20T06:39:23.700Z,7.38
2022-10-20T06:41:53.850Z,7.03
2022-10-20T06:44:23.768Z,7.07
2022-10-20T06:46:55.112Z,6.40
2022-10-20T06:49:23.188Z,7.05
2022-10-20T06:51:50.956Z,6.95
2022-10-20T06:54:18.552Z,7.13
2022-10-20T06:56:47.321Z,7.75
2022-10-20T06:59:15.400Z,8.50
2022-10-20T07:01:43.147Z,6.63
2022-10-20T07:04:14.944Z,7.70
2022-10-20T07:06:44.758Z,7.15
2022-10-20T07:09:15.364Z,5.85
2022-10-20T07:11:43.791Z,6.10
2022-10-20T07:14:13.903Z,4.72
2022-10-20T07:16:41.901Z,5.18
2022-10-20T07:19:09.842Z,5.20
2022-10-20T07:21:39.297Z,5.03
2022-10-20T07:24:09.295Z,5.22
2022-10-20T07:26:39.520Z,5.68
2022-10-20T07:29:07.059Z,7.15
2022-10-20T07:31:40.971Z,7.22
2022-10-20T07:34:24.500Z,5.85
2022-10-20T07:36:55.607Z,5.97
2022-10-20T07:39:23.596Z,4.45
2022-10-20T07:41:51.228Z,4.38
2022-10-20T07:44:18.991Z,4.47
2022-10-20T07:46:46.575Z,4.72
2022-10-20T07:49:42.892Z,3.80
2022-10-20T07:52:01.767Z,4.40
2022-10-20T07:54:29.350Z,4.30
2022-10-20T07:56:56.957Z,4.60
2022-10-20T07:59:24.667Z,3.58
2022-10-20T08:01:56.006Z,3.55
2022-10-20T08:04:26.337Z,3.67
2022-10-20T08:06:53.946Z,3.90
2022-10-20T08:09:21.478Z,4.78
2022-10-20T08:11:52.764Z,3.80
2022-10-20T08:14:24.009Z,3.70
2022-10-20T08:16:53.926Z,3.83
2022-10-20T08:19:28.960Z,3.95
2022-10-20T08:21:56.465Z,4.45
2022-10-20T08:24:23.897Z,4.22
2022-10-20T08:26:51.365Z,3.88
2022-10-20T08:29:18.891Z,4.40
2022-10-20T08:31:46.371Z,3.90
2022-10-20T08:34:14.612Z,4.25
2022-10-20T08:36:42.188Z,4.13
2022-10-20T08:39:09.917Z,4.65
2022-10-20T08:42:06.289Z,4.40
2022-10-20T08:47:03.152Z,4.97
2022-10-20T08:49:35.064Z,5.45
2022-10-20T08:52:02.912Z,5.88
2022-10-20T08:54:34.285Z,4.80
2022-10-20T08:57:01.862Z,4.72
2022-10-20T08:59:36.572Z,5.60
2022-10-20T09:02:16.699Z,5.07
2022-10-20T09:04:55.848Z,5.18
2022-10-20T09:07:34.560Z,5.13
2022-10-20T09:10:30.580Z,5.20
2022-10-20T09:12:59.067Z,5.07
2022-10-20T09:15:27.631Z,4.65
2022-10-20T09:18:06.607Z,5.38
2022-10-20T09:20:40.031Z,4.80
2022-10-20T09:23:35.562Z,4.97
2022-10-20T09:26:01.583Z,4.50
2022-10-20T09:28:38.391Z,5.10
2022-10-20T09:31:31.035Z,4.45
2022-10-20T09:33:58.936Z,4.25
2022-10-20T09:36:33.991Z,3.58
2022-10-20T09:39:02.202Z,3.78
2022-10-20T09:41:32.052Z,3.20
2022-10-20T09:43:59.446Z,3.40
2022-10-20T09:46:30.053Z,3.75
2022-10-20T09:48:58.501Z,3.40
2022-10-20T09:51:28.579Z,3.15
2022-10-20T09:54:08.061Z,3.25
2022-10-20T09:56:37.905Z,3.30
2022-10-20T09:59:32.480Z,3.88
2022-10-20T10:02:03.691Z,2.88
2022-10-20T10:04:39.706Z,2.33
2022-10-20T10:07:27.590Z,2.90
2022-10-20T10:10:08.476Z,2.95
2022-10-20T10:12:37.149Z,2.80
2022-10-20T10:15:23.478Z,3.33
2022-10-20T10:17:51.634Z,2.88
2022-10-20T10:20:22.914Z,2.90
2022-10-20T10:22:50.464Z,3.30
2022-10-20T10:25:25.284Z,4.40
2022-10-20T10:28:06.954Z,3.10
2022-10-20T10:30:37.415Z,3.35
2022-10-20T10:33:33.172Z,3.42
2022-10-20T10:36:14.747Z,3.40
2022-10-20T10:38:42.239Z,3.13
2022-10-20T10:41:37.276Z,3.28
2022-10-20T10:44:14.218Z,3.10
2022-10-20T10:47:01.297Z,3.35
2022-10-20T10:49:43.980Z,3.40
2022-10-20T10:52:49.716Z,3.58
2022-10-20T10:55:43.698Z,3.13
2022-10-20T10:58:33.331Z,3.65
2022-10-20T11:01:10.736Z,3.38
2022-10-20T11:03:44.252Z,3.50
2022-10-20T11:06:31.901Z,3.67
2022-10-20T11:09:14.957Z,3.22
2022-10-20T11:11:57.471Z,3.30
2022-10-20T11:14:39.999Z,3.35
2022-10-20T11:17:35.495Z,3.53
2022-10-20T11:20:27.511Z,3.22
2022-10-20T11:23:07.114Z,3.47
2022-10-20T11:25:59.677Z,3.40
2022-10-20T11:28:37.349Z,2.92
2022-10-20T11:31:05.922Z,3.25
2022-10-20T11:33:43.798Z,2.70
2022-10-20T11:36:16.861Z,2.67
2022-10-20T11:38:56.245Z,2.70
2022-10-20T11:41:58.982Z,3.63
2022-10-20T11:44:40.633Z,3.20
2022-10-20T11:47:12.235Z,2.83
2022-10-20T11:49:43.991Z,3.10
2022-10-20T11:52:21.269Z,2.90
2022-10-20T11:55:11.906Z,2.88
2022-10-20T11:57:52.203Z,2.53
2022-10-20T12:00:36.058Z,3.20
2022-10-20T12:03:33.802Z,2.92
2022-10-20T12:06:32.063Z,2.90
2022-10-20T12:09:40.054Z,2.90
2022-10-20T12:12:35.788Z,3.33
2022-10-20T12:15:20.281Z,3.45
2022-10-20T12:17:49.141Z,3.42
2022-10-20T12:20:21.407Z,3.05
2022-10-20T12:22:54.295Z,3.08
2022-10-20T12:25:25.031Z,3.00
2022-10-20T12:28:25.290Z,2.90
2022-10-20T12:30:58.676Z,3.10
2022-10-20T12:33:39.468Z,2.95
2022-10-20T12:36:31.903Z,3.25
2022-10-20T12:39:15.939Z,3.30
2022-10-20T12:44:18.220Z,2.95
2022-10-20T12:47:04.691Z,3.35
2022-10-20T12:50:11.586Z,3.45
2022-10-20T12:52:40.504Z,3.70
2022-10-20T12:55:17.777Z,2.90
2022-10-20T12:57:46.205Z,3.38
2022-10-20T13:00:20.064Z,4.85
2022-10-20T13:05:19.410Z,3.50
2022-10-20T13:07:47.022Z,2.72
2022-10-20T13:10:31.505Z,3.45
2022-10-20T13:13:01.824Z,3.33
2022-10-20T13:15:39.027Z,3.08
2022-10-20T13:18:13.976Z,3.88
2022-10-20T13:20:56.491Z,3.70
2022-10-20T13:23:43.025Z,2.95
2022-10-20T13:26:22.697Z,2.95
2022-10-20T13:28:54.377Z,2.72
2022-10-20T13:31:30.892Z,2.80
2022-10-20T13:34:15.383Z,3.00
2022-10-20T13:37:07.532Z,2.65
2022-10-20T13:39:58.243Z,2.60
2022-10-20T13:42:50.278Z,2.92
2022-10-20T13:45:17.666Z,2.92
2022-10-20T13:47:48.356Z,3.15
2022-10-20T13:50:29.930Z,2.83
2022-10-20T13:53:04.130Z,2.65
2022-10-20T13:55:59.564Z,3.00
2022-10-20T13:58:27.415Z,3.63
2022-10-20T14:01:24.253Z,2.75
2022-10-20T14:03:52.180Z,2.90
2022-10-20T14:06:32.273Z,3.17
2022-10-20T14:09:10.646Z,7.22
2022-10-20T14:11:41.474Z,6.32
2022-10-20T14:14:13.959Z,2.90
2022-10-20T14:16:57.545Z,23.80
2022-10-20T14:19:28.228Z,3.20
2022-10-20T14:21:58.407Z,2.53
2022-10-20T14:24:28.920Z,6.93
2022-10-20T14:29:38.701Z,3.13
2022-10-20T14:32:07.162Z,5.63
2022-10-20T14:34:36.218Z,7.20
2022-10-20T14:37:38.253Z,3.45
2022-10-20T14:40:20.760Z,4.20
2022-10-20T14:42:49.128Z,6.13
2022-10-20T14:45:20.953Z,4.10
2022-10-20T14:47:49.534Z,4.25
2022-10-20T14:50:37.496Z,3.33
2022-10-20T14:53:27.361Z,3.40
2022-10-20T14:55:57.337Z,3.42
2022-10-20T14:58:29.692Z,3.50
2022-10-20T15:01:18.872Z,3.90
2022-10-20T15:03:46.788Z,3.42
2022-10-20T15:06:17.983Z,4.72
2022-10-20T15:08:57.877Z,3.75
2022-10-20T15:11:28.162Z,9.55
2022-10-20T15:13:59.012Z,4.63
2022-10-20T15:16:42.941Z,6.05
2022-10-20T15:19:35.341Z,5.43
2022-10-20T15:22:11.242Z,5.20
2022-10-20T15:24:39.300Z,5.63
2022-10-20T15:27:15.530Z,4.88
2022-10-20T15:29:49.883Z,4.55
2022-10-20T15:32:18.325Z,4.70
2022-10-20T15:34:45.946Z,4.30
2022-10-20T15:37:13.564Z,5.05
2022-10-20T15:39:44.936Z,6.07
2022-10-20T15:42:12.923Z,5.95
2022-10-20T15:44:40.459Z,5.35
2022-10-20T15:47:08.380Z,6.05
2022-10-20T15:49:37.173Z,5.20
2022-10-20T15:52:05.337Z,5.30
2022-10-20T15:54:32.898Z,5.82
2022-10-20T15:57:00.747Z,4.88
2022-10-20T15:59:28.310Z,4.70
2022-10-20T16:01:55.855Z,4.18
2022-10-20T16:04:29.054Z,4.25
2022-10-20T16:07:02.552Z,3.92
2022-10-20T16:09:31.688Z,4.03
2022-10-20T16:11:59.342Z,3.72
2022-10-20T16:14:46.681Z,3.58
2022-10-20T16:17:34.965Z,3.60
2022-10-20T16:20:22.328Z,3.95
2022-10-20T16:23:09.781Z,4.10
2022-10-20T16:25:57.186Z,3.95
2022-10-20T16:28:44.513Z,4.30
2022-10-20T16:31:31.979Z,4.53
2022-10-20T16:34:00.321Z,4.35
2022-10-20T16:36:27.849Z,6.07
2022-10-20T16:38:57.217Z,6.20
2022-10-20T16:41:24.876Z,9.65
2022-10-20T16:43:55.263Z,11.90
2022-10-20T16:46:25.186Z,6.88
2022-10-20T16:48:52.760Z,6.43
2022-10-20T16:51:20.379Z,10.77
2022-10-20T16:53:48.360Z,6.28
2022-10-20T16:56:21.868Z,5.07
2022-10-20T16:58:50.233Z,5.30
2022-10-20T17:01:20.325Z,5.00
2022-10-20T17:03:50.641Z,5.18
2022-10-20T17:06:20.518Z,7.32
2022-10-20T17:08:49.048Z,8.30
2022-10-20T17:11:22.955Z,8.35
2022-10-20T17:13:51.332Z,6.50
2022-10-20T17:16:24.789Z,5.60
2022-10-20T17:19:05.838Z,6.05
2022-10-20T17:21:34.326Z,5.22
2022-10-20T17:24:02.618Z,5.78
2022-10-20T17:26:31.757Z,5.35
2022-10-20T17:29:01.114Z,5.60
2022-10-20T17:31:29.515Z,6.15
2022-10-20T17:33:58.718Z,6.82
2022-10-20T17:36:27.207Z,7.90
2022-10-20T17:38:59.509Z,7.97
2022-10-20T17:41:28.971Z,7.78
2022-10-20T17:43:59.994Z,8.10
2022-10-20T17:46:28.070Z,6.82
2022-10-20T17:48:56.204Z,5.82
2022-10-20T17:51:28.964Z,6.47
2022-10-20T17:53:59.889Z,7.30
2022-10-20T17:56:32.921Z,5.97
2022-10-20T17:59:02.978Z,7.00
2022-10-20T18:01:40.852Z,6.40
2022-10-20T18:04:12.471Z,7.32
2022-10-20T18:06:41.254Z,5.97
2022-10-20T18:09:12.029Z,6.88
2022-10-20T18:11:42.822Z,7.50
2022-10-20T18:14:11.513Z,6.72
2022-10-20T18:16:40.139Z,7.30
2022-10-20T18:19:09.104Z,6.65
2022-10-20T18:21:37.534Z,6.88
2022-10-20T18:24:08.547Z,6.82
2022-10-20T18:26:37.356Z,6.97
2022-10-20T18:29:07.315Z,12.77
2022-10-20T18:31:36.665Z,7.75
2022-10-20T18:34:08.205Z,8.48
2022-10-20T18:36:40.325Z,7.82
2022-10-20T18:39:11.189Z,7.20
2022-10-20T18:41:40.589Z,8.05
2022-10-20T18:44:16.242Z,7.55
2022-10-20T18:46:46.225Z,8.88
2022-10-20T18:49:15.773Z,7.85
2022-10-20T18:51:46.342Z,7.20
2022-10-20T18:54:15.146Z,7.68
2022-10-20T18:56:43.579Z,7.28
2022-10-20T18:59:16.347Z,7.72
2022-10-20T19:01:44.735Z,6.80
2022-10-20T19:04:12.702Z,7.22
2022-10-20T19:06:43.336Z,7.60
2022-10-20T19:09:15.723Z,6.85
2022-10-20T19:11:44.630Z,7.40
2022-10-20T19:14:13.503Z,7.05
2022-10-20T19:16:47.146Z,7.78
2022-10-20T19:19:15.769Z,7.83
2022-10-20T19:21:44.139Z,9.35
2022-10-20T19:24:15.890Z,8.90
2022-10-20T19:26:56.905Z,7.82
2022-10-20T19:29:35.888Z,8.02
2022-10-20T19:32:05.503Z,13.18
2022-10-20T19:34:37.476Z,9.98
2022-10-20T19:37:05.930Z,9.00
2022-10-20T19:39:37.095Z,8.57
2022-10-20T19:42:06.993Z,9.93
2022-10-20T19:44:35.535Z,8.20
2022-10-20T19:47:04.980Z,7.38
2022-10-20T19:49:34.195Z,8.07
2022-10-20T19:52:01.958Z,8.73
2022-10-20T19:54:29.578Z,9.38
2022-10-20T19:56:59.505Z,7.65
2022-10-20T19:59:27.089Z,7.80
2022-10-20T20:01:55.862Z,8.23
2022-10-20T20:04:23.759Z,8.07
2022-10-20T20:06:51.441Z,7.90
2022-10-20T20:09:19.240Z,8.02
2022-10-20T20:11:47.103Z,9.52
2022-10-20T20:14:19.071Z,9.70
2022-10-20T20:16:47.863Z,9.32
2022-10-20T20:19:17.284Z,8.48
2022-10-20T20:21:46.066Z,9.30
2022-10-20T20:24:14.558Z,10.68
2022-10-20T20:26:44.582Z,9.15
2022-10-20T20:29:12.492Z,8.80
2022-10-20T20:31:40.096Z,8.45
2022-10-20T20:34:07.766Z,11.57
2022-10-20T20:36:35.560Z,9.40
2022-10-20T20:39:03.627Z,9.15
2022-10-20T20:41:31.259Z,9.45
2022-10-20T20:44:01.002Z,18.30
2022-10-20T20:46:31.121Z,12.07
2022-10-20T20:49:01.207Z,13.27
2022-10-20T20:51:33.306Z,13.18
2022-10-20T20:54:03.219Z,10.55
2022-10-20T20:56:31.235Z,9.98
2022-10-20T20:58:58.783Z,12.00
2022-10-20T21:01:28.391Z,12.25
2022-10-20T21:03:58.306Z,9.35
2022-10-20T21:07:00.812Z,10.60
2022-10-20T21:09:27.310Z,10.35
2022-10-20T21:11:54.803Z,13.40
2022-10-20T21:14:22.587Z,11.10
2022-10-20T21:16:50.042Z,11.10
2022-10-20T21:19:17.729Z,10.65
2022-10-20T21:21:50.678Z,10.85
2022-10-20T21:24:18.537Z,10.15
2022-10-20T21:26:46.021Z,10.55
2022-10-20T21:29:17.781Z,10.38
2022-10-20T21:31:45.615Z,10.02
2022-10-20T21:34:13.153Z,10.57
2022-10-20T21:36:40.613Z,11.57
2022-10-20T21:39:11.716Z,11.05
2022-10-20T21:41:39.316Z,11.75
2022-10-20T21:44:07.920Z,11.95
2022-10-20T21:46:39.695Z,11.55
2022-10-20T21:49:10.623Z,10.82
2022-10-20T21:51:43.902Z,11.45
2022-10-20T21:54:14.795Z,11.75
2022-10-20T21:56:44.417Z,11.35
2022-10-20T21:59:25.773Z,12.68
2022-10-20T22:01:55.809Z,11.63
2022-10-20T22:04:25.937Z,10.93
2022-10-20T22:06:54.413Z,13.43
2022-10-20T22:09:22.811Z,12.95
2022-10-20T22:11:55.128Z,14.02
2022-10-20T22:14:23.354Z,12.23
2022-10-20T22:16:51.074Z,13.00
2022-10-20T22:19:20.829Z,15.43
2022-10-20T22:21:50.312Z,11.88
2022-10-20T22:24:18.824Z,15.88
2022-10-20T22:26:47.322Z,12.73
2022-10-20T22:29:15.153Z,14.93
2022-10-20T22:31:42.651Z,14.55
2022-10-20T22:34:10.615Z,15.52
2022-10-20T22:36:39.395Z,15.65
2022-10-20T22:39:08.387Z,16.10
2022-10-20T22:41:36.043Z,15.13
2022-10-20T22:44:04.164Z,14.93
2022-10-20T22:46:31.824Z,16.25
2022-10-20T22:48:59.684Z,15.60
2022-10-20T22:51:27.287Z,16.85
2022-10-20T22:53:54.827Z,18.27
2022-10-20T22:56:23.616Z,17.08
2022-10-20T22:58:53.485Z,17.20
2022-10-20T23:01:23.402Z,17.75
2022-10-20T23:03:51.637Z,16.83
2022-10-20T23:06:25.182Z,17.35
2022-10-20T23:08:55.019Z,17.50
2022-10-20T23:11:23.206Z,16.85
2022-10-20T23:13:51.232Z,18.75
2022-10-20T23:16:19.043Z,18.65
2022-10-20T23:18:47.034Z,16.85
2022-10-20T23:21:14.987Z,16.67
2022-10-20T23:23:42.910Z,15.82
2022-10-20T23:26:11.425Z,17.13
2022-10-20T23:28:39.905Z,15.20
2022-10-20T23:31:12.163Z,17.25
2022-10-20T23:33:41.532Z,15.50
2022-10-20T23:36:10.008Z,16.30
2022-10-20T23:38:37.531Z,16.45
2022-10-20T23:41:05.554Z,14.45
2022-10-20T23:43:33.957Z,16.77
2022-10-20T23:46:01.946Z,15.77
2022-10-20T23:48:29.424Z,15.77
2022-10-20T23:50:57.573Z,16.50
2022-10-20T23:53:25.604Z,17.63
2022-10-20T23:55:53.255Z,14.45
2022-10-20T23:58:22.568Z,15.70
